createdAt,value
2022-09-09T00:00:22.559Z,488.40
2022-09-09T00:43:31.436Z,443.40
2022-09-09T00:45:35.580Z,1779.30
2022-09-09T00:47:40.134Z,623.30
2022-09-09T00:49:15.324Z,845.80
2022-09-09T00:50:58.180Z,1146.40
2022-09-09T00:52:45.707Z,1176.23
2022-09-09T00:54:41.399Z,155.63
2022-09-09T01:22:00.989Z,105.87
2022-09-09T01:23:58.286Z,91.33
2022-09-09T01:43:31.755Z,59.30
2022-09-09T06:04:17.194Z,15.03
2022-09-09T06:06:02.670Z,15.90
2022-09-09T06:07:36.684Z,18.40
2022-09-09T06:09:11.405Z,16.63
2022-09-09T06:10:44.592Z,15.43
2022-09-09T06:18:28.104Z,18.03
2022-09-09T06:20:00.211Z,17.05
2022-09-09T07:21:28.004Z,11.30
2022-09-09T07:23:00.225Z,12.18
2022-09-09T07:24:32.726Z,12.60
2022-09-09T09:29:50.538Z,7.25
2022-09-09T09:31:28.396Z,5.88
2022-09-09T09:33:04.498Z,5.72
2022-09-09T09:34:36.648Z,7.63
2022-09-09T09:36:09.897Z,6.13
2022-09-09T09:41:52.132Z,6.80
2022-09-09T09:43:36.762Z,6.60
2022-09-09T09:45:29.356Z,6.15
2022-09-09T09:47:21.506Z,5.70
2022-09-09T09:49:09.747Z,6.13
2022-09-09T09:50:53.527Z,7.13
2022-09-09T09:52:29.680Z,5.43
2022-09-09T09:54:14.249Z,7.18
2022-09-09T09:55:59.441Z,5.60
2022-09-09T09:57:34.088Z,8.00
2022-09-09T09:59:13.312Z,5.70
2022-09-09T10:00:56.436Z,5.15
2022-09-09T10:02:41.709Z,6.15
2022-09-09T10:04:27.188Z,7.30
2022-09-09T10:05:59.544Z,6.05
2022-09-09T10:07:32.796Z,5.82
2022-09-09T10:09:24.008Z,6.30
2022-09-09T10:11:21.006Z,5.95
2022-09-09T10:13:16.503Z,5.55
2022-09-09T10:15:09.287Z,6.15
2022-09-09T10:16:59.652Z,6.18
2022-09-09T10:18:45.882Z,8.32
2022-09-09T10:20:38.687Z,6.75
2022-09-09T10:22:31.043Z,7.28
2022-09-09T10:24:30.451Z,5.55
2022-09-09T10:26:40.995Z,5.40
2022-09-09T10:29:01.466Z,6.47
2022-09-09T10:30:51.717Z,5.80
2022-09-09T10:33:14.471Z,5.88
2022-09-09T10:35:14.332Z,5.68
2022-09-09T10:36:51.950Z,10.05
2022-09-09T10:38:42.131Z,6.57
2022-09-09T10:40:42.339Z,5.55
2022-09-09T10:42:18.104Z,5.57
2022-09-09T10:44:35.464Z,9.20
2022-09-09T10:46:37.061Z,6.63
2022-09-09T10:48:40.126Z,5.65
2022-09-09T10:51:03.887Z,5.10
2022-09-09T10:52:51.980Z,5.55
2022-09-09T10:54:34.277Z,5.68
2022-09-09T10:56:13.186Z,7.88
2022-09-09T10:58:08.422Z,5.57
2022-09-09T10:59:52.872Z,6.15
2022-09-09T11:01:45.977Z,5.75
2022-09-09T11:03:26.883Z,10.65
2022-09-09T11:05:48.869Z,6.65
2022-09-09T11:07:57.639Z,7.70
2022-09-09T11:09:39.208Z,5.40
2022-09-09T11:11:23.158Z,7.20
2022-09-09T11:13:05.110Z,9.18
2022-09-09T11:14:55.615Z,6.25
2022-09-09T11:17:03.352Z,4.88
2022-09-09T11:18:44.114Z,5.93
2022-09-09T11:20:16.502Z,6.22
2022-09-09T11:21:52.979Z,5.05
2022-09-09T11:23:44.650Z,6.78
2022-09-09T11:25:23.745Z,5.05
2022-09-09T11:27:27.746Z,4.97
2022-09-09T11:29:41.857Z,5.70
2022-09-09T11:31:49.525Z,7.90
2022-09-09T11:33:52.478Z,4.68
2022-09-09T11:35:54.647Z,5.03
2022-09-09T11:38:11.098Z,6.22
2022-09-09T11:40:20.179Z,7.53
2022-09-09T11:41:52.323Z,5.32
2022-09-09T11:43:49.545Z,11.13
2022-09-09T11:45:30.253Z,11.88
2022-09-09T11:47:02.474Z,8.43
2022-09-09T11:49:01.403Z,5.72
2022-09-09T11:50:38.958Z,8.55
2022-09-09T11:52:38.128Z,5.93
2022-09-09T11:54:33.831Z,9.68
2022-09-09T11:56:16.554Z,5.43
2022-09-09T11:57:49.650Z,9.57
2022-09-09T11:59:29.972Z,5.25
2022-09-09T12:01:02.444Z,5.30
2022-09-09T12:02:37.675Z,7.03
2022-09-09T12:04:29.855Z,7.57
2022-09-09T12:06:44.500Z,4.93
2022-09-09T12:08:29.308Z,28.08
2022-09-09T12:10:33.600Z,15.20
2022-09-09T12:12:34.682Z,7.28
2022-09-09T12:14:42.421Z,13.45
2022-09-09T12:16:38.313Z,11.15
2022-09-09T12:18:24.559Z,23.58
2022-09-09T12:20:11.947Z,14.95
2022-09-09T12:22:07.423Z,10.95
2022-09-09T12:23:56.925Z,8.80
2022-09-09T12:25:56.941Z,4.75
2022-09-09T12:27:54.344Z,5.88
2022-09-09T12:29:50.871Z,13.73
2022-09-09T12:32:01.485Z,6.90
2022-09-09T12:33:44.266Z,5.50
2022-09-09T12:35:27.056Z,6.97
2022-09-09T12:37:43.404Z,5.50
2022-09-09T12:39:47.411Z,7.10
2022-09-09T12:41:26.062Z,4.97
2022-09-09T12:43:02.438Z,6.13
2022-09-09T12:44:34.966Z,4.10
2022-09-09T12:46:30.107Z,5.78
2022-09-09T12:48:13.057Z,6.20
2022-09-09T12:49:45.787Z,6.97
2022-09-09T12:51:28.007Z,5.82
2022-09-09T12:53:26.535Z,4.75
2022-09-09T12:55:03.317Z,5.68
2022-09-09T12:56:37.052Z,6.40
2022-09-09T12:58:16.047Z,7.38
2022-09-09T12:59:49.462Z,4.25
2022-09-09T13:01:30.465Z,4.22
2022-09-09T13:03:17.888Z,5.55
2022-09-09T13:04:51.646Z,5.18
2022-09-09T13:06:33.459Z,5.97
2022-09-09T13:08:11.227Z,4.43
2022-09-09T13:09:45.496Z,6.03
2022-09-09T13:11:31.288Z,7.35
2022-09-09T13:13:04.171Z,6.65
2022-09-09T13:14:38.428Z,5.18
2022-09-09T13:16:39.055Z,5.10
2022-09-09T13:18:15.876Z,6.15
2022-09-09T13:19:51.350Z,5.00
2022-09-09T13:21:38.355Z,10.68
2022-09-09T13:23:13.753Z,6.65
2022-09-09T13:24:46.184Z,4.28
2022-09-09T13:26:26.883Z,4.90
2022-09-09T13:28:04.477Z,6.50
2022-09-09T13:29:38.399Z,6.60
2022-09-09T13:31:34.863Z,4.57
2022-09-09T13:33:15.615Z,4.68
2022-09-09T13:35:01.240Z,5.80
2022-09-09T13:36:36.132Z,4.30
2022-09-09T13:38:12.863Z,5.80
2022-09-09T13:39:54.456Z,6.72
2022-09-09T13:41:34.464Z,5.22
2022-09-09T13:43:20.174Z,7.25
2022-09-09T13:44:52.986Z,6.18
2022-09-09T13:46:37.711Z,6.60
2022-09-09T13:48:11.604Z,7.15
2022-09-09T14:20:00.630Z,5.23
2022-09-09T14:23:38.068Z,5.68
2022-09-09T14:28:54.786Z,5.63
2022-09-09T14:30:30.657Z,5.32
2022-09-09T14:32:06.588Z,5.78
2022-09-09T14:33:48.265Z,5.63
2022-09-09T14:35:22.646Z,6.25
2022-09-09T14:36:55.096Z,4.72
2022-09-09T14:38:32.858Z,4.85
2022-09-09T14:43:44.874Z,5.45
2022-09-09T14:45:20.555Z,6.95
2022-09-09T14:48:45.900Z,5.82
2022-09-09T14:50:27.247Z,5.57
2022-09-09T14:52:06.997Z,5.97
2022-09-09T14:53:48.759Z,6.78
2022-09-09T14:55:29.705Z,5.50
2022-09-09T14:57:08.417Z,5.95
2022-09-09T14:58:47.750Z,7.93
2022-09-09T15:02:11.525Z,7.43
2022-09-09T15:04:07.931Z,6.20
2022-09-09T15:05:48.107Z,5.25
2022-09-09T15:07:27.342Z,7.10
2022-09-09T15:09:06.677Z,5.85
2022-09-09T15:10:46.060Z,7.57
2022-09-09T15:12:24.643Z,7.72
2022-09-09T15:14:02.724Z,7.50
2022-09-09T15:15:42.442Z,7.50
2022-09-09T15:17:21.585Z,7.07
2022-09-09T15:19:03.616Z,6.57
2022-09-09T15:20:47.382Z,5.80
2022-09-09T15:22:26.290Z,10.68
2022-09-09T15:24:06.202Z,11.77
2022-09-09T15:25:57.489Z,10.27
2022-09-09T15:27:36.027Z,9.55
2022-09-09T15:29:14.113Z,11.25
2022-09-09T15:30:57.996Z,10.27
2022-09-09T15:32:36.461Z,11.93
2022-09-09T15:34:14.754Z,10.32
2022-09-09T15:35:53.690Z,10.30
2022-09-09T15:37:32.391Z,9.02
2022-09-09T15:39:16.501Z,11.32
2022-09-09T15:41:06.986Z,9.85
2022-09-09T15:42:48.987Z,9.32
2022-09-09T15:44:47.706Z,8.85
2022-09-09T15:47:06.998Z,9.50
2022-09-09T15:48:53.757Z,15.40
2022-09-09T15:50:44.501Z,9.25
2022-09-09T15:52:24.340Z,10.93
2022-09-09T15:54:07.248Z,9.02
2022-09-09T15:55:47.725Z,9.98
2022-09-09T15:57:30.030Z,11.35
2022-09-09T15:59:17.474Z,10.23
2022-09-09T16:01:01.236Z,10.00
2022-09-09T16:02:40.435Z,8.87
2022-09-09T16:04:30.996Z,13.10
2022-09-09T16:06:10.589Z,15.20
2022-09-09T16:07:50.150Z,13.90
2022-09-09T16:09:31.329Z,15.10
2022-09-09T16:11:20.057Z,13.80
2022-09-09T16:13:16.368Z,12.57
2022-09-09T16:14:58.175Z,13.03
2022-09-09T16:17:01.446Z,12.17
2022-09-09T16:18:53.780Z,11.83
2022-09-09T16:20:35.252Z,13.33
2022-09-09T16:22:20.586Z,12.07
2022-09-09T16:24:04.986Z,13.43
2022-09-09T16:25:46.443Z,11.77
2022-09-09T16:27:26.053Z,14.07
2022-09-09T16:29:06.503Z,11.47
2022-09-09T16:30:46.628Z,13.63
2022-09-09T16:32:29.409Z,13.60
2022-09-09T16:34:13.881Z,13.43
2022-09-09T16:36:12.505Z,13.23
2022-09-09T16:37:54.789Z,13.43
2022-09-09T16:39:36.553Z,12.97
2022-09-09T16:41:19.729Z,12.87
2022-09-09T16:42:59.357Z,13.57
2022-09-09T16:44:40.607Z,11.43
2022-09-09T16:46:36.478Z,14.40
2022-09-09T16:48:18.202Z,13.63
2022-09-09T16:49:57.606Z,19.97
2022-09-09T16:51:41.293Z,14.80
2022-09-09T16:53:22.288Z,14.87
2022-09-09T16:55:07.238Z,14.23
2022-09-09T16:56:49.970Z,15.27
2022-09-09T16:58:29.544Z,15.60
2022-09-09T17:00:11.882Z,13.10
2022-09-09T17:01:54.576Z,13.90
2022-09-09T17:03:36.070Z,14.07
2022-09-09T17:05:37.983Z,15.97
2022-09-09T17:07:18.207Z,14.30
2022-09-09T17:09:07.326Z,15.97
2022-09-09T17:10:49.849Z,16.93
2022-09-09T17:12:33.645Z,15.43
2022-09-09T17:14:20.638Z,16.03
2022-09-09T17:16:03.295Z,17.97
2022-09-09T17:17:51.167Z,21.57
2022-09-09T17:19:29.475Z,16.80
2022-09-09T17:21:30.845Z,18.67
2022-09-09T17:23:13.221Z,19.07
2022-09-09T17:24:53.608Z,18.47
2022-09-09T17:26:35.511Z,16.33
2022-09-09T17:28:36.185Z,16.17
2022-09-09T17:30:18.408Z,17.83
2022-09-09T17:31:58.514Z,19.00
2022-09-09T17:33:40.952Z,18.33
2022-09-09T17:35:19.983Z,20.90
2022-09-09T17:36:58.306Z,17.63
2022-09-09T17:38:36.539Z,20.63
2022-09-09T17:40:15.307Z,17.70
2022-09-09T17:41:55.688Z,20.07
2022-09-09T17:43:34.251Z,19.20
2022-09-09T17:45:12.990Z,19.13
2022-09-09T17:46:51.603Z,20.30
2022-09-09T17:48:32.440Z,19.83
2022-09-09T17:50:13.734Z,18.27
2022-09-09T17:51:51.601Z,17.93
2022-09-09T17:53:30.977Z,17.70
2022-09-09T17:55:10.340Z,18.83
2022-09-09T17:56:49.963Z,22.47
2022-09-09T17:58:28.797Z,21.27
2022-09-09T18:00:11.447Z,18.03
2022-09-09T18:01:51.747Z,19.50
2022-09-09T18:03:29.891Z,21.87
2022-09-09T18:05:09.126Z,25.23
2022-09-09T18:06:52.028Z,22.63
2022-09-09T18:08:34.656Z,21.87
2022-09-09T18:10:14.787Z,24.80
2022-09-09T18:12:01.699Z,21.63
2022-09-09T18:13:39.656Z,21.77
2022-09-09T18:15:33.460Z,25.90
2022-09-09T18:17:16.528Z,22.10
2022-09-09T18:18:55.994Z,25.43
2022-09-09T18:20:34.718Z,21.73
2022-09-09T18:22:12.756Z,23.83
2022-09-09T18:23:52.869Z,24.70
2022-09-09T18:25:30.579Z,25.23
2022-09-09T18:27:09.455Z,24.93
2022-09-09T18:28:53.385Z,25.17
2022-09-09T18:30:31.869Z,26.00
2022-09-09T18:32:10.558Z,25.53
2022-09-09T18:33:50.566Z,26.97
2022-09-09T18:35:29.101Z,25.67
2022-09-09T18:37:07.968Z,26.87
2022-09-09T18:38:46.898Z,23.47
2022-09-09T18:40:25.602Z,26.97
2022-09-09T18:42:05.143Z,26.17
2022-09-09T18:43:43.748Z,26.20
2022-09-09T18:45:22.752Z,26.27
2022-09-09T18:47:00.591Z,25.37
2022-09-09T18:48:39.222Z,27.83
2022-09-09T18:50:19.039Z,25.57
2022-09-09T18:51:58.191Z,30.13
2022-09-09T18:53:37.734Z,26.63
2022-09-09T18:55:16.014Z,29.43
2022-09-09T18:56:55.336Z,28.00
2022-09-09T18:58:36.388Z,27.77
2022-09-09T19:00:15.404Z,25.27
2022-09-09T19:01:56.546Z,29.20
2022-09-09T19:03:38.213Z,26.03
2022-09-09T19:05:15.862Z,27.30
2022-09-09T19:06:59.497Z,24.80
2022-09-09T19:08:43.659Z,26.63
2022-09-09T19:10:22.885Z,30.00
2022-09-09T19:12:02.588Z,26.10
2022-09-09T19:13:42.539Z,28.33
2022-09-09T19:15:21.043Z,27.20
2022-09-09T19:17:00.485Z,28.17
2022-09-09T19:18:39.936Z,26.37
2022-09-09T19:20:20.903Z,28.47
2022-09-09T19:22:00.001Z,27.57
2022-09-09T19:23:38.963Z,28.63
2022-09-09T19:25:17.303Z,27.90
2022-09-09T19:27:01.910Z,25.07
2022-09-09T19:28:41.278Z,30.03
2022-09-09T19:30:19.529Z,28.47
2022-09-09T19:32:42.272Z,27.77
2022-09-09T19:34:01.275Z,28.73
2022-09-09T19:35:39.321Z,32.33
2022-09-09T19:37:18.875Z,31.20
2022-09-09T19:38:59.007Z,35.10
2022-09-09T19:40:39.942Z,33.13
2022-09-09T19:42:18.179Z,29.93
2022-09-09T19:44:02.205Z,32.13
2022-09-09T19:45:40.939Z,32.57
2022-09-09T19:47:21.137Z,32.20
2022-09-09T19:49:01.423Z,37.97
2022-09-09T19:50:41.046Z,35.37
2022-09-09T19:52:19.745Z,38.37
2022-09-09T19:54:06.247Z,38.00
2022-09-09T19:55:44.404Z,38.53
2022-09-09T19:57:23.695Z,35.97
2022-09-09T19:59:03.941Z,36.20
2022-09-09T20:00:41.837Z,35.13
2022-09-09T20:02:20.384Z,37.20
2022-09-09T20:04:02.991Z,34.67
2022-09-09T20:05:40.981Z,37.43
2022-09-09T20:07:19.271Z,38.90
2022-09-09T20:08:59.477Z,37.37
2022-09-09T20:10:38.265Z,39.80
2022-09-09T20:12:16.985Z,39.00
2022-09-09T20:13:56.506Z,41.17
2022-09-09T20:15:35.410Z,40.30
2022-09-09T20:17:13.513Z,37.80
2022-09-09T20:18:56.818Z,41.63
2022-09-09T20:20:34.994Z,43.00
2022-09-09T20:22:13.342Z,39.50
2022-09-09T20:23:53.303Z,42.10
2022-09-09T20:25:32.203Z,51.30
2022-09-09T20:27:09.962Z,45.17
2022-09-09T20:28:53.153Z,43.27
2022-09-09T20:30:33.064Z,49.37
2022-09-09T20:32:12.143Z,45.07
2022-09-09T20:33:52.056Z,47.63
2022-09-09T20:35:31.395Z,49.30
2022-09-09T20:37:10.067Z,51.40
2022-09-09T20:39:01.454Z,48.80
2022-09-09T20:40:45.230Z,52.60
2022-09-09T20:42:25.394Z,57.20
2022-09-09T20:44:13.398Z,54.67
2022-09-09T20:45:54.853Z,60.43
2022-09-09T20:47:34.353Z,64.17
2022-09-09T20:49:16.390Z,71.33
2022-09-09T20:50:54.355Z,73.17
2022-09-09T20:52:32.909Z,60.90
2022-09-09T20:54:15.882Z,67.70
2022-09-09T20:55:54.081Z,62.60
2022-09-09T20:57:31.635Z,63.20
2022-09-09T20:59:17.079Z,58.30
2022-09-09T21:00:59.945Z,66.30
2022-09-09T21:02:38.344Z,62.23
2022-09-09T21:04:17.891Z,65.20
2022-09-09T21:05:58.156Z,66.43
2022-09-09T21:07:35.858Z,69.80
2022-09-09T21:09:15.249Z,63.10
2022-09-09T21:10:53.046Z,63.90
2022-09-09T21:12:31.309Z,60.07
2022-09-09T21:14:09.965Z,62.73
2022-09-09T21:15:52.289Z,73.57
2022-09-09T21:17:29.972Z,68.73
2022-09-09T21:19:09.534Z,71.13
2022-09-09T21:20:49.534Z,66.20
2022-09-09T21:22:27.691Z,76.57
2022-09-09T21:24:06.816Z,78.27
2022-09-09T21:25:45.455Z,81.93
2022-09-09T21:27:23.743Z,75.57
2022-09-09T21:29:01.855Z,53.83
2022-09-09T21:30:45.078Z,72.23
2022-09-09T21:32:23.323Z,70.33
2022-09-09T21:34:02.602Z,68.57
2022-09-09T21:35:43.169Z,70.17
2022-09-09T21:37:21.597Z,68.63
2022-09-09T21:39:00.115Z,72.83
2022-09-09T21:40:41.826Z,77.30
2022-09-09T21:42:20.130Z,79.50
2022-09-09T21:43:59.435Z,74.37
2022-09-09T21:45:45.850Z,73.97
2022-09-09T21:47:24.650Z,77.43
2022-09-09T21:49:03.907Z,76.23
2022-09-09T21:50:46.902Z,69.57
2022-09-09T21:52:25.590Z,74.10
2022-09-09T21:54:04.482Z,125.67
2022-09-09T21:55:45.815Z,80.33
2022-09-09T21:57:25.074Z,75.77
2022-09-09T21:59:07.009Z,79.37
2022-09-09T22:00:49.327Z,72.90
2022-09-09T22:02:28.800Z,79.13
2022-09-09T22:04:07.785Z,83.33
2022-09-09T22:05:51.916Z,83.43
2022-09-09T22:07:33.274Z,72.40
2022-09-09T22:09:11.456Z,80.87
2022-09-09T22:10:50.519Z,69.47
2022-09-09T22:12:29.046Z,72.33
2022-09-09T22:14:07.610Z,79.57
2022-09-09T22:15:47.876Z,75.17
2022-09-09T22:17:25.955Z,77.07
2022-09-09T22:19:07.125Z,82.57
2022-09-09T22:20:48.036Z,72.17
2022-09-09T22:22:26.463Z,62.63
2022-09-09T22:24:07.505Z,75.10
2022-09-09T22:25:46.891Z,77.57
2022-09-09T22:27:25.476Z,80.00
2022-09-09T22:29:05.302Z,83.17
2022-09-09T22:30:43.076Z,72.97
2022-09-09T22:32:21.151Z,83.30
2022-09-09T22:34:00.402Z,69.47
2022-09-09T22:35:44.345Z,72.83
2022-09-09T22:37:23.123Z,69.60
2022-09-09T22:39:02.064Z,61.77
2022-09-09T22:40:44.707Z,66.60
2022-09-09T22:42:22.810Z,68.53
2022-09-09T22:44:01.142Z,68.57
2022-09-09T22:45:39.814Z,63.60
2022-09-09T22:47:18.525Z,62.63
2022-09-09T22:48:56.922Z,66.67
2022-09-09T22:50:42.261Z,67.97
2022-09-09T22:52:21.747Z,66.43
2022-09-09T22:54:00.437Z,70.17
2022-09-09T22:55:38.636Z,69.33
2022-09-09T22:57:17.255Z,72.73
2022-09-09T22:58:59.532Z,70.00
2022-09-09T23:00:41.825Z,73.03
2022-09-09T23:02:21.781Z,79.03
2022-09-09T23:04:02.870Z,75.87
2022-09-09T23:05:41.099Z,81.40
2022-09-09T23:07:20.611Z,77.70
2022-09-09T23:09:02.856Z,69.63
2022-09-09T23:10:44.452Z,71.73
2022-09-09T23:12:25.500Z,62.57
2022-09-09T23:14:07.201Z,75.83
2022-09-09T23:15:47.010Z,58.20
2022-09-09T23:17:26.098Z,69.77
2022-09-09T23:19:04.932Z,66.77
2022-09-09T23:20:44.069Z,59.97
2022-09-09T23:22:24.327Z,71.47
2022-09-09T23:24:03.673Z,67.47
2022-09-09T23:25:41.446Z,62.17
2022-09-09T23:27:21.315Z,70.17
2022-09-09T23:29:02.509Z,69.87
2022-09-09T23:30:45.466Z,64.70
2022-09-09T23:32:24.084Z,70.27
2022-09-09T23:34:04.086Z,64.97
2022-09-09T23:35:43.856Z,65.73
2022-09-09T23:37:23.431Z,73.27
2022-09-09T23:39:08.307Z,71.53
2022-09-09T23:40:47.197Z,70.73
2022-09-09T23:42:26.910Z,70.37
2022-09-09T23:44:05.933Z,77.03
2022-09-09T23:45:44.357Z,78.47
2022-09-09T23:47:23.804Z,68.97
2022-09-09T23:49:04.089Z,73.73
2022-09-09T23:50:42.658Z,72.60
2022-09-09T23:52:20.782Z,74.17
2022-09-09T23:54:04.778Z,77.13
2022-09-09T23:55:43.525Z,76.13
2022-09-09T23:57:21.858Z,62.13
2022-09-09T23:59:00.957Z,68.83
